AUA52U LOWW-LIML
Flight info
| Callsign | AUA52U |
|---|---|
| Flight time | N/A |
| Altitude | 36000 |
| Route | OSPEN DCT ABRUK DCT SETAL DCT DETSA DCT BAKOR DCT NAXAV DCT RENTA DCT ATPED DCT LUSIL |
| Aircraft | A20N/M-SDE2E3FGHIRWXY/LB2 |
Departure
| Time | 2026-04-21 12:32 |
|---|---|
| Airport | Vienna International Airport (LOWW) |
Arrival
| Time | N/A |
|---|---|
| Airport | Milano Linate Airport (LIML) |
| Time | Latitude | Longitude | Altitude | Speed | Heading |
|---|---|---|---|---|---|
| 2026-04-21 12:01 | 48.11655 | 16.56953 | 590 ft | 0 kts | 26° |
| 2026-04-21 12:02 | 48.11658 | 16.56955 | 622 ft | 0 kts | 25° |
| 2026-04-21 12:23 | 48.11655 | 16.56953 | 609 ft | 3 kts | 26° |
| 2026-04-21 12:23 | 48.11630 | 16.56935 | 613 ft | 4 kts | 28° |
| 2026-04-21 12:24 | 48.11607 | 16.56915 | 616 ft | 4 kts | 38° |
| 2026-04-21 12:24 | 48.11592 | 16.56888 | 625 ft | 4 kts | 93° |
| 2026-04-21 12:24 | 48.11592 | 16.56878 | 625 ft | 0 kts | 116° |
| 2026-04-21 12:28 | 48.11585 | 16.56901 | 609 ft | 4 kts | 116° |
| 2026-04-21 12:28 | 48.11565 | 16.56960 | 618 ft | 8 kts | 116° |
| 2026-04-21 12:29 | 48.11535 | 16.57054 | 617 ft | 12 kts | 116° |
| 2026-04-21 12:29 | 48.11493 | 16.57182 | 612 ft | 16 kts | 116° |
| 2026-04-21 12:29 | 48.11438 | 16.57343 | 620 ft | 19 kts | 126° |
| 2026-04-21 12:29 | 48.11323 | 16.57339 | 618 ft | 19 kts | 206° |
| 2026-04-21 12:30 | 48.11193 | 16.57244 | 609 ft | 22 kts | 205° |
| 2026-04-21 12:30 | 48.11171 | 16.57229 | 614 ft | 1 kts | 205° |
| 2026-04-21 12:30 | 48.11105 | 16.57189 | 617 ft | 17 kts | 201° |
| 2026-04-21 12:30 | 48.11073 | 16.57061 | 617 ft | 13 kts | 274° |
| 2026-04-21 12:31 | 48.11106 | 16.56931 | 621 ft | 15 kts | 302° |
| 2026-04-21 12:31 | 48.11178 | 16.56718 | 615 ft | 54 kts | 297° |
| 2026-04-21 12:31 | 48.11483 | 16.55826 | 612 ft | 134 kts | 296° |
| 2026-04-21 12:31 | 48.11967 | 16.54316 | 837 ft | 175 kts | 297° |
| 2026-04-21 12:32 | 48.12474 | 16.52637 | 1715 ft | 185 kts | 296° |
| 2026-04-21 12:32 | 48.12984 | 16.50697 | 2346 ft | 217 kts | 287° |
| 2026-04-21 12:32 | 48.12908 | 16.48323 | 3241 ft | 238 kts | 253° |
| 2026-04-21 12:32 | 48.11957 | 16.46224 | 4348 ft | 252 kts | 222° |
| 2026-04-21 12:33 | 48.10366 | 16.44980 | 5243 ft | 266 kts | 193° |
| 2026-04-21 12:33 | 48.08504 | 16.44730 | 5890 ft | 276 kts | 185° |
| 2026-04-21 12:33 | 48.06633 | 16.44087 | 6426 ft | 276 kts | 200° |
| 2026-04-21 12:33 | 48.04901 | 16.42904 | 6923 ft | 274 kts | 211° |
| 2026-04-21 12:34 | 48.03296 | 16.41337 | 7425 ft | 275 kts | 218° |
| 2026-04-21 12:34 | 48.01806 | 16.39578 | 7935 ft | 276 kts | 222° |
| 2026-04-21 12:34 | 48.00335 | 16.37690 | 8465 ft | 278 kts | 223° |
| 2026-04-21 12:34 | 47.98877 | 16.35767 | 8997 ft | 281 kts | 223° |
| 2026-04-21 12:35 | 47.97401 | 16.33815 | 9537 ft | 283 kts | 224° |
| 2026-04-21 12:35 | 47.96114 | 16.31658 | 10065 ft | 282 kts | 239° |
| 2026-04-21 12:35 | 47.95262 | 16.29040 | 10566 ft | 280 kts | 253° |
| 2026-04-21 12:35 | 47.94617 | 16.26297 | 11066 ft | 281 kts | 253° |
| 2026-04-21 12:36 | 47.93954 | 16.23542 | 11587 ft | 282 kts | 252° |
| 2026-04-21 12:36 | 47.93278 | 16.20777 | 12109 ft | 284 kts | 252° |
| 2026-04-21 12:36 | 47.92596 | 16.18002 | 12654 ft | 285 kts | 252° |
| 2026-04-21 12:36 | 47.91917 | 16.15245 | 13179 ft | 287 kts | 252° |
| 2026-04-21 12:37 | 47.91230 | 16.12452 | 13722 ft | 288 kts | 252° |
| 2026-04-21 12:37 | 47.90520 | 16.09568 | 14248 ft | 303 kts | 252° |
| 2026-04-21 12:37 | 47.89772 | 16.06526 | 14759 ft | 318 kts | 252° |
| 2026-04-21 12:37 | 47.88992 | 16.03357 | 15271 ft | 332 kts | 252° |
| 2026-04-21 12:38 | 47.88171 | 16.00066 | 15784 ft | 345 kts | 250° |
| 2026-04-21 12:38 | 47.87006 | 15.96870 | 16307 ft | 358 kts | 237° |
| 2026-04-21 12:38 | 47.85349 | 15.94116 | 16829 ft | 364 kts | 223° |
| 2026-04-21 12:38 | 47.83326 | 15.91797 | 17379 ft | 368 kts | 219° |
| 2026-04-21 12:39 | 47.81266 | 15.89493 | 17909 ft | 370 kts | 219° |
| 2026-04-21 12:39 | 47.79201 | 15.87168 | 18466 ft | 373 kts | 220° |
| 2026-04-21 12:39 | 47.77127 | 15.84826 | 18951 ft | 375 kts | 220° |
| 2026-04-21 12:39 | 47.75034 | 15.82465 | 19442 ft | 377 kts | 220° |
| 2026-04-21 12:40 | 47.72935 | 15.80096 | 19956 ft | 380 kts | 220° |
| 2026-04-21 12:40 | 47.70847 | 15.77741 | 20436 ft | 382 kts | 220° |
| 2026-04-21 12:40 | 47.68723 | 15.75348 | 20969 ft | 386 kts | 220° |
| 2026-04-21 12:40 | 47.66573 | 15.72932 | 21492 ft | 388 kts | 220° |
| 2026-04-21 12:41 | 47.64406 | 15.70499 | 22033 ft | 391 kts | 220° |
| 2026-04-21 12:41 | 47.62223 | 15.68051 | 22574 ft | 394 kts | 220° |
| 2026-04-21 12:41 | 47.60026 | 15.65590 | 23134 ft | 398 kts | 220° |
| 2026-04-21 12:41 | 47.57807 | 15.63106 | 23682 ft | 401 kts | 220° |
| 2026-04-21 12:42 | 47.55570 | 15.60605 | 24160 ft | 403 kts | 220° |
| 2026-04-21 12:42 | 47.53347 | 15.58122 | 24649 ft | 406 kts | 220° |
| 2026-04-21 12:42 | 47.51102 | 15.55553 | 25131 ft | 408 kts | 224° |
| 2026-04-21 12:42 | 47.49193 | 15.52469 | 25470 ft | 406 kts | 237° |
| 2026-04-21 12:43 | 47.47824 | 15.48840 | 25767 ft | 404 kts | 250° |
| 2026-04-21 12:43 | 47.46976 | 15.44877 | 26082 ft | 404 kts | 256° |
| 2026-04-21 12:43 | 47.46220 | 15.40914 | 26391 ft | 406 kts | 256° |
| 2026-04-21 12:43 | 47.45445 | 15.36896 | 26715 ft | 408 kts | 256° |
| 2026-04-21 12:44 | 47.44661 | 15.32861 | 27013 ft | 409 kts | 256° |
| 2026-04-21 12:44 | 47.43870 | 15.28819 | 27327 ft | 411 kts | 256° |
| 2026-04-21 12:44 | 47.43073 | 15.24755 | 27649 ft | 412 kts | 256° |
| 2026-04-21 12:44 | 47.42270 | 15.20671 | 27978 ft | 415 kts | 256° |
| 2026-04-21 12:45 | 47.41462 | 15.16571 | 28305 ft | 416 kts | 256° |
| 2026-04-21 12:45 | 47.40651 | 15.12462 | 28641 ft | 418 kts | 256° |
| 2026-04-21 12:45 | 47.39844 | 15.08384 | 28986 ft | 419 kts | 256° |
| 2026-04-21 12:45 | 47.39013 | 15.04197 | 29312 ft | 420 kts | 256° |
| 2026-04-21 12:46 | 47.38202 | 15.00110 | 29637 ft | 422 kts | 256° |
| 2026-04-21 12:46 | 47.37372 | 14.95942 | 29998 ft | 423 kts | 256° |
| 2026-04-21 12:46 | 47.36540 | 14.91770 | 30306 ft | 425 kts | 256° |
| 2026-04-21 12:46 | 47.35700 | 14.87568 | 30594 ft | 427 kts | 256° |
| 2026-04-21 12:47 | 47.34856 | 14.83351 | 30882 ft | 428 kts | 256° |
| 2026-04-21 12:47 | 47.34006 | 14.79121 | 31182 ft | 429 kts | 256° |
| 2026-04-21 12:47 | 47.33156 | 14.74896 | 31469 ft | 429 kts | 256° |
| 2026-04-21 12:47 | 47.32317 | 14.70736 | 31766 ft | 428 kts | 256° |
| 2026-04-21 12:48 | 47.31467 | 14.66527 | 32068 ft | 427 kts | 256° |
| 2026-04-21 12:48 | 47.30619 | 14.62340 | 32378 ft | 426 kts | 256° |
| 2026-04-21 12:48 | 47.29771 | 14.58158 | 32693 ft | 426 kts | 256° |
| 2026-04-21 12:48 | 47.28917 | 14.53958 | 33007 ft | 426 kts | 256° |
| 2026-04-21 12:49 | 47.28068 | 14.49788 | 33334 ft | 424 kts | 256° |
| 2026-04-21 12:49 | 47.27229 | 14.45682 | 33647 ft | 424 kts | 257° |
| 2026-04-21 12:49 | 47.26380 | 14.41534 | 33963 ft | 423 kts | 257° |
| 2026-04-21 12:49 | 47.25530 | 14.37384 | 34260 ft | 423 kts | 257° |
| 2026-04-21 12:50 | 47.24677 | 14.33228 | 34535 ft | 423 kts | 256° |
| 2026-04-21 12:50 | 47.23822 | 14.29077 | 34812 ft | 424 kts | 256° |
| 2026-04-21 12:50 | 47.22967 | 14.24930 | 35099 ft | 424 kts | 256° |
| 2026-04-21 12:50 | 47.22115 | 14.20819 | 35372 ft | 424 kts | 256° |
| 2026-04-21 12:51 | 47.21253 | 14.16672 | 35656 ft | 423 kts | 256° |
| 2026-04-21 12:51 | 47.20394 | 14.12539 | 35949 ft | 423 kts | 256° |
| 2026-04-21 12:51 | 47.19531 | 14.08391 | 36062 ft | 426 kts | 256° |
| 2026-04-21 12:52 | 47.17788 | 14.00044 | 36061 ft | 426 kts | 256° |
| 2026-04-21 12:52 | 47.16042 | 13.91726 | 36061 ft | 425 kts | 256° |
| 2026-04-21 12:53 | 47.14303 | 13.83470 | 36065 ft | 425 kts | 256° |
| 2026-04-21 12:53 | 47.12550 | 13.75183 | 36062 ft | 423 kts | 256° |
| 2026-04-21 12:54 | 47.10805 | 13.66968 | 36054 ft | 423 kts | 256° |
| 2026-04-21 12:54 | 47.09052 | 13.58742 | 36049 ft | 422 kts | 256° |
| 2026-04-21 12:55 | 47.07292 | 13.50524 | 36049 ft | 421 kts | 256° |
| 2026-04-21 12:55 | 47.05532 | 13.42335 | 36052 ft | 421 kts | 256° |
| 2026-04-21 12:56 | 47.03762 | 13.34131 | 36054 ft | 421 kts | 256° |
| 2026-04-21 12:56 | 47.01969 | 13.25846 | 36052 ft | 433 kts | 256° |
| 2026-04-21 12:57 | 47.00149 | 13.17482 | 36051 ft | 433 kts | 256° |
| 2026-04-21 12:57 | 46.98305 | 13.09077 | 36045 ft | 432 kts | 254° |
| 2026-04-21 12:57 | 46.97008 | 13.05075 | 36037 ft | 439 kts | 242° |
| 2026-04-21 12:58 | 46.95282 | 13.01369 | 36033 ft | 441 kts | 239° |